createdAt,value
2018-10-12T00:02:21.142Z,17.57
2018-10-12T00:04:49.303Z,19.33
2018-10-12T00:07:17.442Z,22.50
2018-10-12T00:09:45.385Z,19.57
2018-10-12T00:12:13.528Z,17.50
2018-10-12T00:14:41.672Z,17.70
2018-10-12T00:17:09.843Z,16.40
2018-10-12T00:19:37.975Z,15.40
2018-10-12T00:22:05.909Z,20.63
2018-10-12T00:24:34.067Z,15.47
2018-10-12T00:27:01.975Z,18.40
2018-10-12T00:29:30.139Z,15.10
2018-10-12T00:31:58.064Z,18.80
2018-10-12T00:34:26.182Z,18.23
2018-10-12T00:36:54.330Z,18.50
2018-10-12T00:39:22.458Z,16.90
2018-10-12T00:41:50.603Z,18.50
2018-10-12T00:44:18.528Z,19.73
2018-10-12T00:46:46.686Z,15.10
2018-10-12T00:49:14.828Z,15.37
2018-10-12T00:51:42.995Z,15.30
2018-10-12T00:54:10.993Z,16.70
2018-10-12T00:56:38.958Z,16.33
2018-10-12T00:59:07.150Z,16.30
2018-10-12T01:01:35.302Z,14.73
2018-10-12T01:04:03.458Z,17.50
2018-10-12T01:06:31.431Z,16.43
2018-10-12T01:08:59.531Z,14.57
2018-10-12T01:11:27.704Z,14.00
2018-10-12T01:13:55.862Z,14.87
2018-10-12T01:16:24.075Z,16.07
2018-10-12T01:18:52.250Z,13.53
2018-10-12T01:21:20.420Z,16.40
2018-10-12T01:23:48.575Z,16.73
2018-10-12T01:26:16.742Z,14.23
2018-10-12T01:28:49.113Z,16.73
2018-10-12T01:31:17.391Z,16.87
2018-10-12T01:33:45.555Z,19.50
2018-10-12T01:36:13.719Z,16.60
2018-10-12T01:38:41.879Z,14.63
2018-10-12T01:41:10.067Z,13.43
2018-10-12T01:43:37.990Z,16.00
2018-10-12T01:46:06.142Z,18.13
2018-10-12T01:48:34.307Z,15.60
2018-10-12T01:51:02.434Z,19.33
2018-10-12T01:53:30.639Z,17.90
2018-10-12T01:56:01.096Z,17.53
2018-10-12T01:58:29.106Z,19.23
2018-10-12T02:00:57.240Z,14.73
2018-10-12T02:03:25.382Z,17.40
2018-10-12T02:05:53.566Z,14.50
2018-10-12T02:08:21.731Z,15.17
2018-10-12T02:10:49.870Z,18.37
2018-10-12T02:13:17.810Z,14.03
2018-10-12T02:15:45.954Z,14.77
2018-10-12T02:18:14.119Z,15.30
2018-10-12T02:20:42.234Z,12.97
2018-10-12T02:23:10.374Z,14.73
2018-10-12T02:25:38.539Z,14.73
2018-10-12T02:28:06.683Z,13.33
2018-10-12T02:30:34.808Z,15.17
2018-10-12T02:33:02.950Z,12.20
2018-10-12T02:35:31.075Z,15.83
2018-10-12T02:37:59.002Z,13.53
2018-10-12T02:40:27.142Z,12.30
2018-10-12T02:42:55.414Z,12.40
2018-10-12T02:45:23.561Z,12.50
2018-10-12T02:47:51.722Z,14.43
2018-10-12T02:50:19.895Z,13.30
2018-10-12T02:52:48.057Z,14.93
2018-10-12T02:55:16.239Z,13.37
2018-10-12T02:57:44.403Z,13.37
2018-10-12T03:00:12.576Z,12.27
2018-10-12T03:02:40.762Z,16.33
2018-10-12T03:05:08.931Z,15.10
2018-10-12T03:07:37.109Z,15.30
2018-10-12T03:10:05.318Z,13.03
2018-10-12T03:12:33.477Z,14.33
2018-10-12T03:15:01.646Z,14.07
2018-10-12T03:17:29.786Z,13.57
2018-10-12T03:19:57.706Z,15.47
2018-10-12T03:22:25.870Z,14.30
2018-10-12T03:24:54.059Z,16.90
2018-10-12T03:27:22.212Z,15.77
2018-10-12T03:29:50.374Z,14.97
2018-10-12T03:32:18.521Z,14.73
2018-10-12T03:34:46.686Z,14.57
2018-10-12T03:37:14.863Z,13.87
2018-10-12T03:39:43.032Z,16.53
2018-10-12T03:42:11.210Z,16.63
2018-10-12T03:44:39.167Z,14.80
2018-10-12T03:47:07.078Z,14.90
2018-10-12T03:49:35.019Z,14.93
2018-10-12T03:52:06.485Z,16.23
2018-10-12T03:54:34.590Z,16.33
2018-10-12T03:57:02.511Z,12.70
2018-10-12T03:59:30.682Z,14.07
2018-10-12T04:01:58.602Z,13.57
2018-10-12T04:04:26.762Z,13.53
2018-10-12T04:06:54.924Z,14.53
2018-10-12T04:09:23.080Z,12.57
2018-10-12T04:11:51.242Z,15.30
2018-10-12T04:14:19.425Z,15.00
2018-10-12T04:16:47.598Z,13.70
2018-10-12T04:19:15.777Z,13.57
2018-10-12T04:21:43.950Z,17.13
2018-10-12T04:24:11.896Z,13.20
2018-10-12T04:26:39.850Z,13.47
2018-10-12T04:29:07.997Z,17.03
2018-10-12T04:31:36.168Z,14.00
2018-10-12T04:34:04.328Z,12.67
2018-10-12T04:36:32.500Z,14.17
2018-10-12T04:39:06.122Z,16.73
2018-10-12T04:41:34.317Z,13.27
2018-10-12T04:44:03.365Z,13.43
2018-10-12T04:46:35.173Z,14.70
2018-10-12T04:49:03.380Z,14.53
2018-10-12T04:51:37.450Z,15.57
2018-10-12T04:54:05.450Z,15.47
2018-10-12T04:56:33.366Z,13.67
2018-10-12T04:59:02.252Z,14.37
2018-10-12T05:01:30.391Z,15.50
2018-10-12T05:03:58.568Z,14.50
2018-10-12T05:06:26.706Z,14.03
2018-10-12T05:08:54.843Z,12.33
2018-10-12T05:11:23.018Z,12.20
2018-10-12T05:13:51.181Z,11.63
2018-10-12T05:16:19.327Z,12.63
2018-10-12T05:18:47.254Z,13.73
2018-10-12T05:21:15.162Z,12.83
2018-10-12T05:23:43.217Z,12.03
2018-10-12T05:26:11.158Z,12.60
2018-10-12T05:28:39.411Z,14.63
2018-10-12T05:31:07.715Z,15.10
2018-10-12T05:33:35.902Z,13.67
2018-10-12T05:36:03.897Z,13.80
2018-10-12T05:38:32.466Z,13.67
2018-10-12T05:41:00.791Z,16.07
2018-10-12T05:43:28.843Z,13.07
2018-10-12T05:45:56.674Z,11.90
2018-10-12T05:48:36.271Z,14.37
2018-10-12T05:51:05.058Z,14.23
2018-10-12T05:53:33.481Z,15.80
2018-10-12T05:56:01.416Z,14.13
2018-10-12T05:58:29.603Z,13.37
2018-10-12T06:00:57.794Z,14.87
2018-10-12T06:03:25.946Z,12.43
2018-10-12T06:05:54.105Z,14.63
2018-10-12T06:08:22.087Z,13.47
2018-10-12T06:10:50.297Z,13.30
2018-10-12T06:13:18.370Z,13.03
2018-10-12T06:15:46.601Z,17.10
2018-10-12T06:18:14.710Z,13.60
2018-10-12T06:20:42.858Z,16.03
2018-10-12T06:23:11.020Z,14.37
2018-10-12T06:25:38.942Z,18.13
2018-10-12T06:28:07.115Z,15.87
2018-10-12T06:30:35.047Z,12.50
2018-10-12T06:33:03.040Z,19.30
2018-10-12T06:35:31.213Z,15.23
2018-10-12T06:37:59.955Z,18.20
2018-10-12T06:40:28.475Z,14.73
2018-10-12T06:42:56.627Z,24.47
2018-10-12T06:45:24.842Z,18.83
2018-10-12T06:47:52.761Z,19.50
2018-10-12T06:50:20.987Z,16.23
2018-10-12T06:52:48.906Z,15.83
2018-10-12T06:55:17.091Z,14.63
2018-10-12T06:57:45.263Z,20.33
2018-10-12T07:00:13.437Z,16.37
2018-10-12T07:02:41.609Z,21.10
2018-10-12T07:05:09.823Z,20.67
2018-10-12T07:07:38.001Z,14.87
2018-10-12T07:10:05.951Z,13.30
2018-10-12T07:12:34.156Z,13.97
2018-10-12T07:15:02.331Z,20.23
2018-10-12T07:17:30.530Z,14.63
2018-10-12T07:19:58.725Z,13.03
2018-10-12T07:22:26.898Z,12.03
2018-10-12T07:24:55.059Z,9.83
2018-10-12T07:27:23.214Z,8.27
2018-10-12T07:29:51.378Z,10.77
2018-10-12T07:32:19.535Z,9.27
2018-10-12T07:34:47.694Z,10.27
2018-10-12T07:37:15.909Z,13.13
2018-10-12T07:39:44.099Z,11.37
2018-10-12T07:42:12.286Z,9.27
2018-10-12T07:44:40.501Z,11.97
2018-10-12T07:47:08.715Z,10.90
2018-10-12T07:49:36.858Z,10.07
2018-10-12T07:52:04.790Z,11.33
2018-10-12T07:54:32.964Z,13.13
2018-10-12T07:57:15.848Z,11.23
2018-10-12T07:59:45.029Z,10.30
2018-10-12T08:02:13.834Z,10.47
2018-10-12T08:04:42.542Z,9.40
2018-10-12T08:07:11.832Z,11.03
2018-10-12T08:09:40.098Z,9.07
2018-10-12T08:12:08.007Z,11.57
2018-10-12T08:14:35.930Z,12.17
2018-10-12T08:17:04.113Z,10.33
2018-10-12T08:19:32.392Z,11.33
2018-10-12T08:22:00.567Z,12.60
2018-10-12T08:24:28.751Z,10.60
2018-10-12T08:26:56.926Z,10.27
2018-10-12T08:29:26.665Z,10.47
2018-10-12T08:31:54.940Z,8.53
2018-10-12T08:34:23.089Z,14.73
2018-10-12T08:36:51.102Z,8.37
2018-10-12T08:39:19.296Z,13.10
2018-10-12T08:41:47.488Z,9.90
2018-10-12T08:44:15.879Z,9.53
2018-10-12T08:46:44.042Z,14.33
2018-10-12T08:49:11.990Z,7.97
2018-10-12T08:51:40.158Z,7.03
2018-10-12T08:54:08.425Z,8.00
2018-10-12T08:56:37.139Z,8.40
2018-10-12T08:59:05.094Z,8.17
2018-10-12T09:01:33.301Z,11.03
2018-10-12T09:04:02.191Z,8.97
2018-10-12T09:06:30.352Z,9.93
2018-10-12T09:08:58.888Z,6.97
2018-10-12T09:11:27.079Z,7.97
2018-10-12T09:13:55.235Z,6.97
2018-10-12T09:16:23.428Z,9.07
2018-10-12T09:18:51.571Z,8.30
2018-10-12T09:21:19.792Z,6.97
2018-10-12T09:23:47.742Z,9.17
2018-10-12T09:26:15.925Z,8.13
2018-10-12T09:28:43.845Z,8.73
2018-10-12T09:31:12.034Z,8.03
2018-10-12T09:33:40.210Z,6.07
2018-10-12T09:36:08.378Z,9.13
2018-10-12T09:38:36.821Z,6.87
2018-10-12T09:41:05.054Z,7.43
2018-10-12T09:43:33.228Z,7.60
2018-10-12T09:46:01.430Z,8.73
2018-10-12T09:48:29.604Z,6.00
2018-10-12T09:50:57.738Z,5.60
2018-10-12T09:53:25.657Z,8.73
2018-10-12T09:55:53.660Z,5.70
2018-10-12T09:58:21.507Z,6.03
2018-10-12T10:00:55.145Z,5.60
2018-10-12T10:03:28.673Z,6.33
2018-10-12T10:05:56.580Z,5.60
2018-10-12T10:08:24.888Z,5.53
2018-10-12T10:10:52.966Z,6.97
2018-10-12T10:13:21.179Z,7.73
2018-10-12T10:15:49.318Z,4.87
2018-10-12T10:18:17.475Z,7.07
2018-10-12T10:20:45.691Z,4.60
2018-10-12T10:23:13.864Z,4.80
2018-10-12T10:25:42.027Z,5.23
2018-10-12T10:28:10.192Z,6.10
2018-10-12T10:30:38.338Z,5.47
2018-10-12T10:33:06.563Z,5.20
2018-10-12T10:35:34.738Z,6.50
2018-10-12T10:38:02.919Z,6.13
2018-10-12T10:40:31.078Z,4.63
2018-10-12T10:42:59.466Z,7.50
2018-10-12T10:45:27.639Z,5.37
2018-10-12T10:47:55.802Z,6.50
2018-10-12T10:50:24.050Z,6.07
2018-10-12T10:52:52.194Z,4.63
2018-10-12T10:55:20.387Z,6.33
2018-10-12T10:57:48.543Z,5.73
2018-10-12T11:00:16.757Z,4.70
2018-10-12T11:02:44.750Z,7.50
2018-10-12T11:05:12.976Z,8.23
2018-10-12T11:07:41.151Z,6.80
2018-10-12T11:10:09.443Z,6.40
2018-10-12T11:12:37.734Z,3.30
2018-10-12T11:15:06.650Z,5.93
2018-10-12T11:17:34.815Z,3.90
2018-10-12T11:20:03.007Z,4.23
2018-10-12T11:22:31.208Z,3.07
2018-10-12T11:24:59.374Z,4.37
2018-10-12T11:27:27.539Z,3.67
2018-10-12T11:29:55.712Z,4.10
2018-10-12T11:32:23.955Z,6.23
2018-10-12T11:34:52.117Z,5.40
2018-10-12T11:37:20.300Z,5.27
2018-10-12T11:39:48.471Z,5.30
2018-10-12T11:42:16.744Z,4.17
2018-10-12T11:44:44.725Z,8.53
2018-10-12T11:47:12.850Z,6.17
2018-10-12T11:49:41.019Z,6.27
2018-10-12T11:52:09.257Z,7.00
2018-10-12T11:54:37.379Z,9.93
2018-10-12T11:57:05.546Z,6.90
2018-10-12T11:59:33.746Z,3.30
2018-10-12T12:02:02.009Z,3.03
2018-10-12T12:04:30.168Z,6.07
2018-10-12T12:06:58.362Z,6.43
2018-10-12T12:09:26.567Z,4.10
2018-10-12T12:11:54.814Z,6.83
2018-10-12T12:14:23.031Z,4.60
2018-10-12T12:16:51.193Z,3.67
2018-10-12T12:19:19.380Z,5.80
2018-10-12T12:21:47.545Z,4.97
2018-10-12T12:24:15.733Z,3.40
2018-10-12T12:26:43.887Z,4.57
2018-10-12T12:29:12.051Z,2.50
2018-10-12T12:31:40.243Z,3.93
2018-10-12T12:34:08.398Z,5.10
2018-10-12T12:36:36.569Z,2.93
2018-10-12T12:39:05.625Z,2.37
2018-10-12T12:41:33.610Z,2.27
2018-10-12T12:44:01.775Z,4.53
2018-10-12T12:46:29.935Z,3.83
2018-10-12T12:48:58.548Z,2.30
2018-10-12T12:51:26.222Z,2.93
2018-10-12T12:53:54.432Z,2.43
2018-10-12T12:56:22.521Z,2.90
2018-10-12T12:58:50.662Z,2.50
2018-10-12T13:01:18.806Z,2.50
2018-10-12T13:03:46.989Z,2.30
2018-10-12T13:06:15.152Z,3.17
2018-10-12T13:08:43.285Z,2.63
2018-10-12T13:11:11.472Z,2.47
2018-10-12T13:13:39.626Z,2.33
2018-10-12T13:16:07.761Z,4.13
2018-10-12T13:18:35.943Z,3.57
2018-10-12T13:21:04.102Z,2.60
2018-10-12T13:23:32.267Z,2.37
2018-10-12T13:26:00.562Z,2.73
2018-10-12T13:28:28.588Z,3.10
2018-10-12T13:30:56.729Z,7.30
2018-10-12T13:33:24.883Z,2.60
2018-10-12T13:35:53.035Z,4.23
2018-10-12T13:38:21.203Z,3.13
2018-10-12T13:40:49.331Z,5.60
2018-10-12T13:43:17.547Z,3.63
2018-10-12T13:45:45.722Z,3.03
2018-10-12T13:48:13.896Z,3.17
2018-10-12T13:50:42.094Z,4.03
2018-10-12T13:53:10.335Z,3.67
2018-10-12T13:55:38.547Z,2.90
2018-10-12T13:58:06.827Z,5.90
2018-10-12T14:00:35.075Z,3.37
2018-10-12T14:03:03.267Z,2.53
2018-10-12T14:05:31.580Z,2.30
2018-10-12T14:07:59.730Z,5.43
2018-10-12T14:10:27.911Z,2.90
2018-10-12T14:12:56.054Z,3.50
2018-10-12T14:15:24.634Z,5.70
2018-10-12T14:17:53.031Z,2.97
2018-10-12T14:20:21.390Z,5.00
2018-10-12T14:22:49.928Z,7.97
2018-10-12T14:25:18.350Z,4.17
2018-10-12T14:27:46.618Z,2.83
2018-10-12T14:30:15.038Z,2.03
2018-10-12T14:32:43.524Z,3.00
2018-10-12T14:35:12.074Z,3.80
2018-10-12T14:37:40.268Z,2.83
2018-10-12T14:40:08.451Z,2.00
2018-10-12T14:42:36.413Z,2.47
2018-10-12T14:45:04.695Z,6.23
2018-10-12T14:47:33.631Z,3.50
2018-10-12T14:50:01.749Z,3.63
2018-10-12T14:52:30.001Z,4.37
2018-10-12T14:54:58.267Z,2.77
2018-10-12T14:57:26.230Z,2.83
2018-10-12T14:59:55.254Z,3.27
2018-10-12T15:02:23.455Z,5.73
2018-10-12T15:04:51.634Z,6.03
2018-10-12T15:07:19.798Z,3.03
2018-10-12T15:09:47.994Z,5.73
2018-10-12T15:12:16.142Z,2.70
2018-10-12T15:14:49.714Z,3.87
2018-10-12T15:17:17.985Z,5.30
2018-10-12T15:19:46.170Z,4.00
2018-10-12T15:22:14.387Z,4.53
2018-10-12T15:24:42.550Z,4.30
2018-10-12T15:27:10.758Z,3.03
2018-10-12T15:29:38.947Z,7.67
2018-10-12T15:32:07.267Z,3.80
2018-10-12T15:34:35.527Z,4.20
2018-10-12T15:37:03.893Z,3.33
2018-10-12T15:39:32.055Z,4.87
2018-10-12T15:42:00.490Z,8.67
2018-10-12T15:44:28.807Z,4.83
2018-10-12T15:46:57.121Z,4.27
2018-10-12T15:49:25.190Z,3.17
2018-10-12T15:51:53.221Z,5.57
2018-10-12T15:54:21.664Z,7.17
2018-10-12T15:56:50.177Z,4.03
2018-10-12T15:59:18.825Z,2.73
2018-10-12T16:01:47.666Z,2.73
2018-10-12T16:04:15.979Z,5.60
2018-10-12T16:06:44.701Z,3.77
2018-10-12T16:09:13.012Z,4.50
2018-10-12T16:11:41.318Z,6.13
2018-10-12T16:14:09.723Z,3.80
2018-10-12T16:16:37.782Z,4.13
2018-10-12T16:19:06.155Z,2.73
2018-10-12T16:21:34.549Z,4.33
2018-10-12T16:24:08.268Z,2.50
2018-10-12T16:26:36.676Z,4.10
2018-10-12T16:29:05.032Z,2.47
2018-10-12T16:31:33.207Z,3.37
2018-10-12T16:34:01.539Z,4.47
2018-10-12T16:36:30.940Z,4.67
2018-10-12T16:38:59.313Z,2.77
2018-10-12T16:41:27.590Z,11.40
2018-10-12T16:43:55.813Z,4.80
2018-10-12T16:46:24.112Z,2.47
2018-10-12T16:48:52.620Z,4.80
2018-10-12T16:51:20.812Z,5.23
2018-10-12T16:53:55.516Z,4.13
2018-10-12T16:56:23.897Z,4.03
2018-10-12T16:58:52.282Z,5.47
2018-10-12T17:01:20.292Z,6.40
2018-10-12T17:03:48.402Z,5.77
2018-10-12T17:06:16.963Z,4.20
2018-10-12T17:08:45.155Z,8.67
2018-10-12T17:11:13.141Z,3.77
2018-10-12T17:13:41.190Z,3.27
2018-10-12T17:16:09.239Z,4.97
2018-10-12T17:18:37.515Z,5.62
2018-10-12T17:21:05.867Z,6.47
2018-10-12T17:23:34.714Z,5.35
2018-10-12T17:26:03.195Z,6.33
2018-10-12T17:28:31.711Z,4.60
2018-10-12T17:30:59.844Z,6.47
2018-10-12T17:33:27.824Z,3.27
2018-10-12T17:35:56.029Z,6.00
2018-10-12T17:38:24.238Z,4.30
2018-10-12T17:40:52.924Z,5.40
2018-10-12T17:43:21.226Z,5.72
2018-10-12T17:45:49.561Z,6.80
2018-10-12T17:48:18.023Z,10.23
2018-10-12T17:50:46.331Z,10.67
2018-10-12T17:53:14.842Z,10.43
2018-10-12T17:55:42.823Z,10.47
2018-10-12T17:58:11.331Z,10.00
2018-10-12T18:00:39.776Z,7.47
2018-10-12T18:03:08.255Z,6.67
2018-10-12T18:05:36.530Z,8.83
2018-10-12T18:08:05.109Z,9.97
2018-10-12T18:10:33.344Z,9.47
2018-10-12T18:13:01.814Z,6.63
2018-10-12T18:15:31.531Z,9.50
2018-10-12T18:18:01.504Z,11.67
2018-10-12T18:20:29.935Z,7.37
2018-10-12T18:22:58.610Z,4.93
2018-10-12T18:25:27.931Z,8.33
2018-10-12T18:27:56.168Z,7.17
2018-10-12T18:30:24.428Z,10.17
2018-10-12T18:32:53.095Z,6.63
2018-10-12T18:35:21.658Z,8.15
2018-10-12T18:37:50.167Z,7.97
2018-10-12T18:40:18.719Z,8.80
2018-10-12T18:42:47.259Z,13.67
2018-10-12T18:45:15.570Z,8.57
2018-10-12T18:47:43.936Z,9.70
2018-10-12T18:50:12.434Z,11.00
2018-10-12T18:52:40.847Z,13.23
2018-10-12T18:55:09.412Z,10.80
2018-10-12T18:57:37.501Z,8.03
2018-10-12T19:00:07.217Z,11.97
2018-10-12T19:02:35.596Z,13.67
2018-10-12T19:05:04.126Z,9.10
2018-10-12T19:07:32.045Z,16.33
2018-10-12T19:10:00.103Z,11.87
2018-10-12T19:12:28.097Z,6.07
2018-10-12T19:14:56.567Z,12.00
2018-10-12T19:17:25.088Z,13.00
2018-10-12T19:19:54.187Z,13.80
2018-10-12T19:22:22.390Z,13.57
2018-10-12T19:24:50.556Z,8.83
2018-10-12T19:27:18.740Z,12.47
2018-10-12T19:29:46.914Z,11.47
2018-10-12T19:32:15.382Z,13.33
2018-10-12T19:34:43.709Z,12.97
2018-10-12T19:37:12.390Z,15.40
2018-10-12T19:39:40.743Z,8.83
2018-10-12T19:42:09.047Z,9.63
2018-10-12T19:44:37.265Z,13.20
2018-10-12T19:47:06.762Z,11.37
2018-10-12T19:49:35.333Z,12.73
2018-10-12T19:52:03.863Z,11.03
2018-10-12T19:54:32.502Z,32.40
2018-10-12T19:57:01.127Z,23.33
2018-10-12T19:59:30.426Z,18.67
2018-10-12T20:01:58.832Z,13.97
2018-10-12T20:04:27.073Z,11.20
2018-10-12T20:06:55.270Z,12.10
2018-10-12T20:09:23.699Z,8.97
2018-10-12T20:11:52.349Z,12.53
2018-10-12T20:14:21.208Z,9.40
2018-10-12T20:16:49.307Z,10.63
2018-10-12T20:19:17.283Z,9.13
2018-10-12T20:21:45.336Z,10.40
2018-10-12T20:24:13.407Z,8.63
2018-10-12T20:26:41.425Z,11.77
2018-10-12T20:29:09.406Z,11.93
2018-10-12T20:31:37.705Z,12.60
2018-10-12T20:34:06.205Z,10.07
2018-10-12T20:36:34.486Z,7.67
2018-10-12T20:39:02.954Z,45.90
2018-10-12T20:41:31.227Z,20.53
2018-10-12T20:43:59.351Z,19.80
2018-10-12T20:46:27.524Z,14.40
2018-10-12T20:48:55.952Z,12.93
2018-10-12T20:51:24.151Z,8.80
2018-10-12T20:53:52.482Z,10.63
2018-10-12T20:56:20.852Z,10.47
2018-10-12T20:58:48.776Z,12.33
2018-10-12T21:01:17.103Z,11.50
2018-10-12T21:03:45.109Z,15.13
2018-10-12T21:06:13.363Z,15.77
2018-10-12T21:08:41.486Z,9.17
2018-10-12T21:11:09.702Z,12.20
2018-10-12T21:13:37.760Z,11.80
2018-10-12T21:16:05.766Z,9.80
2018-10-12T21:18:34.039Z,9.73
2018-10-12T21:21:02.227Z,12.33
2018-10-12T21:23:30.606Z,12.80
2018-10-12T21:25:59.102Z,13.37
2018-10-12T21:28:27.827Z,11.70
2018-10-12T21:30:55.800Z,8.80
2018-10-12T21:33:24.054Z,11.37
2018-10-12T21:35:52.295Z,8.63
2018-10-12T21:38:20.636Z,9.80
2018-10-12T21:40:48.985Z,8.70
2018-10-12T21:43:17.390Z,12.40
2018-10-12T21:45:45.580Z,8.63
2018-10-12T21:48:13.731Z,8.63
2018-10-12T21:50:41.907Z,13.33
2018-10-12T21:53:09.837Z,9.40
2018-10-12T21:55:38.023Z,7.93
2018-10-12T21:58:06.592Z,9.60
2018-10-12T22:00:34.831Z,10.83
2018-10-12T22:03:02.901Z,11.30
2018-10-12T22:05:31.235Z,11.83
2018-10-12T22:07:59.998Z,16.27
2018-10-12T22:10:28.191Z,18.03
2018-10-12T22:12:56.119Z,11.93
2018-10-12T22:15:24.644Z,9.37
2018-10-12T22:17:54.039Z,9.13
2018-10-12T22:20:22.312Z,10.07
2018-10-12T22:22:50.951Z,9.80
2018-10-12T22:25:19.637Z,10.03
2018-10-12T22:27:47.816Z,13.00
2018-10-12T22:30:15.795Z,12.33
2018-10-12T22:32:44.272Z,11.13
2018-10-12T22:35:12.650Z,10.10
2018-10-12T22:37:40.796Z,16.07
2018-10-12T22:40:09.891Z,13.13
2018-10-12T22:42:38.403Z,9.30
2018-10-12T22:45:07.072Z,8.10
2018-10-12T22:47:35.196Z,9.67
2018-10-12T22:50:03.249Z,8.33
2018-10-12T22:52:31.355Z,13.37
2018-10-12T22:54:59.417Z,11.60
2018-10-12T22:57:27.476Z,13.17
2018-10-12T22:59:55.774Z,10.93
2018-10-12T23:02:23.936Z,9.50
2018-10-12T23:04:52.171Z,11.07
2018-10-12T23:07:20.350Z,9.97
2018-10-12T23:09:48.547Z,9.10
2018-10-12T23:12:16.823Z,8.30
2018-10-12T23:14:44.759Z,8.97
2018-10-12T23:17:13.025Z,8.47
2018-10-12T23:19:41.005Z,9.57
2018-10-12T23:22:09.009Z,9.80
2018-10-12T23:24:36.943Z,7.63
2018-10-12T23:27:05.111Z,7.50
2018-10-12T23:29:33.318Z,7.47
2018-10-12T23:32:01.488Z,9.13
2018-10-12T23:34:29.413Z,9.10
2018-10-12T23:36:57.611Z,10.13
2018-10-12T23:39:25.806Z,7.03
2018-10-12T23:41:53.743Z,7.67
2018-10-12T23:44:21.902Z,6.43
2018-10-12T23:46:50.226Z,10.53
2018-10-12T23:49:18.390Z,11.03
2018-10-12T23:51:46.329Z,10.40
2018-10-12T23:54:14.515Z,9.13
2018-10-12T23:56:42.726Z,6.90
2018-10-12T23:59:10.670Z,11.00
